Time;durP1;ratioP1;P1;durP2;ratioP2;P2;SDS_P1;SDS_P2;PMS_P1;PMS_P2;Temp;Humidity;BMP_temperature;BMP_pressure;BME280_temperature;BME280_humidity;BME280_pressure;Samples;Min_cycle;Max_cycle;Signal;HPM_P1;HPM_P2
2021/07/22 00:00:07;;;;;;;7.03;4.12;;;;;;;13.44;83.70;96137.52;1766409;81;21002;-60
2021/07/22 00:02:37;;;;;;;5.03;3.10;;;;;;;13.46;84.17;96137.50;1763174;81;21038;-60
2021/07/22 00:05:06;;;;;;;6.22;3.15;;;;;;;13.46;84.63;96138.36;1766581;81;21050;-60
2021/07/22 00:07:32;;;;;;;3.95;2.95;;;;;;;13.43;84.71;96137.11;1766449;81;21042;-60
2021/07/22 00:09:59;;;;;;;5.47;3.30;;;;;;;13.46;84.08;96132.19;1766535;81;21002;-60
2021/07/22 00:12:25;;;;;;;7.80;3.35;;;;;;;13.49;83.99;96138.75;1766248;81;21047;-60
2021/07/22 00:14:52;;;;;;;7.37;3.37;;;;;;;13.42;84.13;96142.84;1766306;81;21026;-60
2021/07/22 00:17:18;;;;;;;6.67;2.95;;;;;;;13.45;84.59;96141.03;1766574;81;21006;-60
2021/07/22 00:19:45;;;;;;;4.35;3.37;;;;;;;13.42;84.43;96138.86;1766580;81;20993;-60
2021/07/22 00:22:11;;;;;;;8.23;3.52;;;;;;;13.38;83.88;96139.84;1766196;81;21046;-60
2021/07/22 00:24:38;;;;;;;5.90;3.17;;;;;;;13.39;84.39;96141.58;1766493;81;20994;-60
2021/07/22 00:27:05;;;;;;;13.75;3.33;;;;;;;13.35;84.23;96135.05;1765981;81;21073;-60
2021/07/22 00:29:34;;;;;;;5.95;3.45;;;;;;;13.35;84.50;96141.67;1766022;81;21114;-60
2021/07/22 00:32:01;;;;;;;7.20;3.17;;;;;;;13.33;84.57;96140.40;1766010;81;21523;-60
2021/07/22 00:34:28;;;;;;;3.92;3.47;;;;;;;13.25;84.76;96141.41;1766169;81;21006;-60
2021/07/22 00:36:55;;;;;;;4.28;3.87;;;;;;;13.20;84.60;96138.84;1766364;81;21527;-60
2021/07/22 00:39:22;;;;;;;11.22;4.28;;;;;;;13.15;84.59;96143.36;1766182;81;21054;-60
2021/07/22 00:41:50;;;;;;;5.45;3.30;;;;;;;13.10;84.79;96141.26;1765820;81;21074;-60
2021/07/22 00:44:17;;;;;;;3.87;3.45;;;;;;;12.99;84.53;96134.39;1766074;81;21034;-60
2021/07/22 00:46:43;;;;;;;7.17;3.17;;;;;;;12.97;84.10;96140.62;1766336;81;21011;-59
2021/07/22 00:49:11;;;;;;;6.72;3.33;;;;;;;12.97;83.87;96137.98;1736325;81;21022;-60
2021/07/22 00:51:39;;;;;;;3.08;2.77;;;;;;;12.95;84.43;96140.67;1766025;81;21031;-60
2021/07/22 00:54:06;;;;;;;4.33;3.00;;;;;;;12.89;84.23;96137.26;1766183;81;21019;-60
2021/07/22 00:56:35;;;;;;;9.50;3.37;;;;;;;12.85;84.43;96132.91;1765894;81;21050;-60
2021/07/22 00:59:03;;;;;;;5.47;3.22;;;;;;;12.80;84.47;96129.05;1766067;81;21330;-60
2021/07/22 01:01:30;;;;;;;4.85;3.35;;;;;;;12.77;84.67;96121.14;1766677;81;21453;-60
2021/07/22 01:03:58;;;;;;;8.10;3.50;;;;;;;12.81;84.73;96118.87;1766279;81;21058;-60
2021/07/22 01:06:26;;;;;;;6.50;2.92;;;;;;;12.79;84.89;96118.02;1766307;81;21011;-60
2021/07/22 01:08:52;;;;;;;4.20;3.10;;;;;;;12.76;84.73;96121.59;1766317;81;21046;-60
2021/07/22 01:11:24;;;;;;;6.87;3.65;;;;;;;12.75;85.00;96128.23;1766312;81;21034;-60
2021/07/22 01:13:51;;;;;;;5.15;3.05;;;;;;;12.73;84.74;96124.31;1766213;81;21122;-59
2021/07/22 01:16:18;;;;;;;5.50;3.15;;;;;;;12.74;84.44;96119.88;1766667;81;21026;-60
2021/07/22 01:18:46;;;;;;;5.42;3.27;;;;;;;12.72;84.29;96122.55;1766808;81;21006;-59
2021/07/22 01:21:12;;;;;;;8.60;2.80;;;;;;;12.73;84.72;96120.34;1766019;81;21594;-60
2021/07/22 01:23:40;;;;;;;4.42;2.95;;;;;;;12.75;84.28;96121.19;1766294;81;20998;-60
2021/07/22 01:26:11;;;;;;;5.78;3.12;;;;;;;12.74;84.17;96120.75;1761592;81;21034;-60
2021/07/22 01:28:37;;;;;;;10.58;3.35;;;;;;;12.67;84.21;96123.08;1766315;81;21069;-59
2021/07/22 01:31:04;;;;;;;6.58;2.80;;;;;;;12.66;84.34;96126.64;1766045;81;21065;-60
2021/07/22 01:33:31;;;;;;;4.58;2.47;;;;;;;12.53;84.47;96125.12;1766245;81;21090;-60
2021/07/22 01:35:57;;;;;;;6.85;2.72;;;;;;;12.47;84.36;96122.56;1765943;81;21054;-60
2021/07/22 01:38:24;;;;;;;3.35;2.83;;;;;;;12.49;84.79;96126.06;1766230;81;21082;-60
2021/07/22 01:40:50;;;;;;;4.95;2.90;;;;;;;12.49;85.36;96130.91;1764498;81;21031;-60
2021/07/22 01:43:17;;;;;;;7.72;3.33;;;;;;;12.62;85.22;96128.91;1762492;81;21524;-60
2021/07/22 01:45:46;;;;;;;8.18;3.60;;;;;;;12.67;84.82;96133.67;1761767;81;21493;-59
2021/07/22 01:48:13;;;;;;;6.33;3.27;;;;;;;12.65;84.13;96135.50;1762379;81;21097;-60
2021/07/22 01:50:40;;;;;;;6.67;2.75;;;;;;;12.61;84.16;96129.83;1762327;81;21090;-60
2021/07/22 01:53:07;;;;;;;3.70;3.12;;;;;;;12.51;84.32;96136.19;1762217;81;21026;-60
2021/07/22 01:55:34;;;;;;;4.20;3.22;;;;;;;12.54;84.99;96133.48;1762333;81;21019;-60
2021/07/22 01:58:02;;;;;;;10.20;3.27;;;;;;;12.61;84.70;96139.09;1762480;81;21496;-60
2021/07/22 02:00:30;;;;;;;3.50;2.80;;;;;;;12.62;84.81;96132.88;1761901;81;21495;-59
2021/07/22 02:02:58;;;;;;;7.62;3.08;;;;;;;12.62;84.18;96130.23;1762675;81;20967;-60
2021/07/22 02:05:26;;;;;;;6.72;2.95;;;;;;;12.50;83.88;96127.38;1761863;81;21030;-59
2021/07/22 02:07:53;;;;;;;6.35;3.70;;;;;;;12.37;83.73;96126.27;1762772;81;21030;-60
2021/07/22 02:10:21;;;;;;;5.53;3.27;;;;;;;12.31;84.65;96129.45;1762194;81;21046;-60
2021/07/22 02:12:47;;;;;;;7.03;3.10;;;;;;;12.31;84.91;96140.48;1762295;81;21075;-60
2021/07/22 02:15:16;;;;;;;6.75;3.77;;;;;;;12.28;84.53;96130.83;1762315;81;21026;-59
2021/07/22 02:17:42;;;;;;;10.70;3.50;;;;;;;12.24;84.15;96133.09;1762668;81;21520;-60
2021/07/22 02:20:10;;;;;;;7.62;4.58;;;;;;;12.25;84.63;96137.95;1762572;81;20999;-60
2021/07/22 02:22:37;;;;;;;5.62;3.33;;;;;;;12.18;84.89;96132.34;1762428;81;21548;-60
2021/07/22 02:25:06;;;;;;;4.65;3.62;;;;;;;12.15;85.02;96138.55;1757028;81;21569;-60
2021/07/22 02:27:35;;;;;;;6.70;3.92;;;;;;;12.12;84.86;96139.93;1761191;81;21010;-60
2021/07/22 02:30:07;;;;;;;5.08;3.60;;;;;;;12.02;84.87;96141.84;1762476;81;20983;-59
2021/07/22 02:32:35;;;;;;;7.85;3.62;;;;;;;11.91;85.02;96146.41;1762621;81;21456;-59
2021/07/22 02:35:03;;;;;;;9.78;3.62;;;;;;;11.86;85.49;96143.82;1762447;81;21500;-59
2021/07/22 02:37:37;;;;;;;6.87;3.65;;;;;;;11.84;85.20;96143.39;1731041;81;21011;-59
2021/07/22 02:40:07;;;;;;;3.95;3.42;;;;;;;11.89;85.08;96142.91;1762185;81;21074;-60
2021/07/22 02:42:33;;;;;;;6.00;3.58;;;;;;;11.91;85.23;96145.95;1765885;81;21046;-59
2021/07/22 02:45:02;;;;;;;7.50;3.35;;;;;;;11.89;85.53;96145.55;1765086;81;21018;-59
2021/07/22 02:47:30;;;;;;;6.67;3.20;;;;;;;11.85;85.25;96148.66;1766414;81;21022;-60
2021/07/22 02:49:58;;;;;;;6.90;3.47;;;;;;;11.86;85.49;96142.50;1766121;81;21016;-59
2021/07/22 02:52:25;;;;;;;5.42;3.40;;;;;;;11.95;85.92;96147.25;1766222;81;21034;-60
2021/07/22 02:54:52;;;;;;;4.75;3.30;;;;;;;11.94;85.95;96145.48;1766243;81;21473;-60
2021/07/22 02:57:20;;;;;;;4.22;2.92;;;;;;;11.98;85.38;96145.88;1765961;81;21027;-59
2021/07/22 02:59:47;;;;;;;10.28;3.58;;;;;;;11.97;85.11;96146.75;1766181;81;20971;-60
2021/07/22 03:02:14;;;;;;;7.00;3.40;;;;;;;11.98;84.98;96142.77;1766357;81;21011;-59
2021/07/22 03:04:41;;;;;;;6.85;3.00;;;;;;;11.95;85.03;96143.28;1766453;81;21090;-60
2021/07/22 03:07:09;;;;;;;6.00;2.70;;;;;;;11.99;85.29;96144.51;1764177;81;21579;-59
2021/07/22 03:09:35;;;;;;;8.70;3.15;;;;;;;12.05;84.88;96150.18;1766230;81;21022;-59
2021/07/22 03:12:02;;;;;;;8.30;3.00;;;;;;;12.12;85.13;96148.73;1766217;81;21114;-59
2021/07/22 03:14:30;;;;;;;9.40;3.15;;;;;;;12.19;84.33;96153.91;1765659;81;21031;-59
2021/07/22 03:16:58;;;;;;;7.85;3.60;;;;;;;12.21;84.34;96152.13;1736261;81;21026;-59
2021/07/22 03:19:27;;;;;;;7.90;3.60;;;;;;;12.26;84.11;96156.89;1764301;81;20994;-59
2021/07/22 03:22:01;;;;;;;5.30;3.22;;;;;;;12.16;83.91;96157.48;1765994;81;21034;-59
2021/07/22 03:24:46;;;;;;;3.45;2.70;;;;;;;12.10;83.84;96157.14;1766520;81;21046;-59
2021/07/22 03:27:20;;;;;;;4.25;3.22;;;;;;;12.07;83.98;96156.29;1761235;81;21030;-59
2021/07/22 03:29:47;;;;;;;11.75;5.78;;;;;;;11.98;84.19;96152.03;1766319;81;21018;-60
2021/07/22 03:32:15;;;;;;;9.68;5.17;;;;;;;12.08;84.96;96151.45;1766336;81;21520;-59
2021/07/22 03:34:41;;;;;;;5.60;4.72;;;;;;;12.27;85.18;96150.69;1766249;81;20999;-59
2021/07/22 03:37:10;;;;;;;5.97;4.83;;;;;;;12.36;84.63;96152.33;1765266;81;21026;-59
2021/07/22 03:39:37;;;;;;;8.28;4.30;;;;;;;12.38;84.20;96150.53;1766587;81;20982;-59
2021/07/22 03:42:07;;;;;;;9.20;3.98;;;;;;;12.44;84.12;96147.77;1766207;81;21026;-60
2021/07/22 03:44:35;;;;;;;6.20;3.77;;;;;;;12.40;84.72;96152.68;1766423;81;21505;-60
2021/07/22 03:47:05;;;;;;;8.20;3.35;;;;;;;12.50;84.76;96151.20;1766396;81;21025;-60
2021/07/22 03:49:34;;;;;;;6.75;3.40;;;;;;;12.62;84.40;96148.77;1766212;81;21001;-60
2021/07/22 03:52:03;;;;;;;4.08;3.30;;;;;;;12.63;84.07;96153.18;1766109;81;21098;-59
2021/07/22 03:54:32;;;;;;;6.83;3.45;;;;;;;12.62;83.53;96148.77;1765668;81;21002;-59
2021/07/22 03:57:01;;;;;;;8.50;3.87;;;;;;;12.64;83.67;96151.39;1765844;81;21504;-60
2021/07/22 03:59:28;;;;;;;7.55;3.80;;;;;;;12.66;84.28;96152.25;1766404;81;21030;-60
2021/07/22 04:01:56;;;;;;;4.97;3.20;;;;;;;12.73;84.72;96148.59;1766251;81;21630;-60
2021/07/22 04:04:24;;;;;;;3.90;3.33;;;;;;;12.71;84.48;96150.39;1766382;81;20971;-59
2021/07/22 04:06:53;;;;;;;5.75;3.70;;;;;;;12.66;85.26;96139.02;1766575;81;21049;-59
2021/07/22 04:09:22;;;;;;;5.00;3.12;;;;;;;12.67;85.59;96142.94;1753903;81;21050;-60
2021/07/22 04:11:50;;;;;;;4.05;3.30;;;;;;;12.73;85.67;96147.27;1765329;81;21026;-61
2021/07/22 04:14:27;;;;;;;5.53;3.35;;;;;;;12.72;85.19;96142.41;1734496;81;21551;-60
2021/07/22 04:17:18;;;;;;;;;;;;;;;12.75;85.58;96145.44;1767756;81;21098;-60
2021/07/22 04:20:00;;;;;;;5.80;2.77;;;;;;;12.78;85.95;96146.28;1766481;81;20091;-60
2021/07/22 04:22:46;;;;;;;5.47;3.72;;;;;;;12.84;85.81;96139.98;1766311;81;21007;-60
2021/07/22 04:25:15;;;;;;;8.50;4.12;;;;;;;12.89;85.93;96147.39;1753999;81;21022;-60
2021/07/22 04:27:49;;;;;;;6.08;3.37;;;;;;;12.98;85.98;96132.66;1765035;81;21069;-60
2021/07/22 04:30:17;;;;;;;6.12;3.60;;;;;;;13.10;85.87;96133.31;1765089;81;21022;-60
2021/07/22 04:32:58;;;;;;;5.37;3.85;;;;;;;13.17;85.29;96133.61;1764072;81;21014;-60
2021/07/22 04:35:35;;;;;;;5.92;3.70;;;;;;;13.13;85.71;96135.47;1677937;85;21041;-59
2021/07/22 04:38:06;;;;;;;7.20;3.70;;;;;;;13.26;85.81;96136.09;1737096;81;21136;-59
2021/07/22 04:40:34;;;;;;;5.67;3.58;;;;;;;13.35;85.75;96131.94;1761821;81;21033;-59
2021/07/22 04:43:12;;;;;;;5.25;3.67;;;;;;;13.35;85.04;96133.27;1772718;81;21022;-59
2021/07/22 04:45:46;;;;;;;6.62;3.67;;;;;;;13.36;85.58;96129.73;1740714;81;21017;-60
2021/07/22 04:48:17;;;;;;;8.35;4.28;;;;;;;13.46;86.07;96122.91;1770919;81;21018;-60
2021/07/22 04:50:48;;;;;;;8.38;3.77;;;;;;;13.57;85.90;96127.05;1772933;81;21019;-60
2021/07/22 04:53:17;;;;;;;5.95;3.70;;;;;;;13.69;85.94;96131.69;1772639;81;21042;-60
2021/07/22 04:55:45;;;;;;;7.30;3.50;;;;;;;13.83;85.91;96131.80;1772898;81;21607;-60
2021/07/22 04:58:12;;;;;;;5.08;3.10;;;;;;;14.04;85.97;96122.92;1774367;81;21413;-60
2021/07/22 05:00:40;;;;;;;5.62;3.62;;;;;;;14.20;85.10;96121.63;1774386;81;21053;-60
2021/07/22 05:03:07;;;;;;;8.15;3.58;;;;;;;14.22;84.34;96119.81;1774384;81;20994;-60
2021/07/22 05:05:36;;;;;;;5.70;3.60;;;;;;;14.34;84.39;96129.70;1773500;81;21022;-60
2021/07/22 05:08:19;;;;;;;7.20;3.80;;;;;;;14.46;83.68;96128.07;1772694;81;21038;-60
2021/07/22 05:10:47;;;;;;;4.95;3.47;;;;;;;14.71;84.17;96126.55;1773223;81;21042;-60
2021/07/22 05:13:16;;;;;;;4.45;3.40;;;;;;;14.87;82.87;96124.84;1773829;81;21480;-60
2021/07/22 05:16:01;;;;;;;3.83;3.08;;;;;;;14.86;81.07;96119.09;1773932;81;20995;-60
2021/07/22 05:18:44;;;;;;;7.35;3.50;;;;;;;15.01;82.11;96117.81;1707856;84;21575;-60
2021/07/22 05:21:31;;;;;;;4.45;3.33;;;;;;;15.22;82.68;96121.64;1678681;85;21033;-60
2021/07/22 05:24:03;;;;;;;6.42;3.27;;;;;;;15.45;82.68;96111.23;1685255;85;21033;-60
2021/07/22 05:26:38;;;;;;;4.03;3.65;;;;;;;15.62;82.73;96111.18;1725454;81;21054;-60
2021/07/22 05:29:18;;;;;;;5.17;3.90;;;;;;;15.76;82.35;96107.69;1767401;80;20970;-60
2021/07/22 05:31:46;;;;;;;9.93;3.75;;;;;;;15.88;81.55;96108.64;1764526;81;21038;-60
2021/07/22 05:34:24;;;;;;;5.65;3.80;;;;;;;15.99;81.70;96102.97;1763747;81;21081;-60
2021/07/22 05:37:07;;;;;;;;;;;;;;;16.11;81.22;96102.58;1707678;84;21042;-60
2021/07/22 05:39:39;;;;;;;5.90;4.00;;;;;;;16.17;80.84;96107.69;1747048;81;20106;-60
2021/07/22 05:42:06;;;;;;;4.85;4.28;;;;;;;16.20;80.71;96112.05;1765392;81;21492;-60
2021/07/22 05:44:32;;;;;;;7.90;3.90;;;;;;;16.31;80.84;96111.72;1765145;81;21061;-60
2021/07/22 05:46:58;;;;;;;5.53;4.65;;;;;;;16.40;80.80;96108.30;1765166;81;21480;-60
2021/07/22 05:49:25;;;;;;;8.13;3.87;;;;;;;16.52;80.31;96108.80;1765285;81;21002;-60
2021/07/22 05:51:51;;;;;;;6.17;4.22;;;;;;;16.54;79.91;96107.82;1765147;81;21026;-60
2021/07/22 05:54:18;;;;;;;7.95;4.17;;;;;;;16.66;79.90;96107.88;1764917;81;21022;-60
2021/07/22 05:56:45;;;;;;;11.80;4.30;;;;;;;16.75;79.72;96101.34;1764896;81;21022;-60
2021/07/22 05:59:11;;;;;;;14.50;5.25;;;;;;;16.79;79.02;96103.02;1764856;81;20999;-60
2021/07/22 06:01:38;;;;;;;14.15;4.12;;;;;;;16.84;79.51;96104.59;1764849;81;20991;-60
2021/07/22 06:04:05;;;;;;;12.98;4.50;;;;;;;16.95;79.44;96103.34;1765010;81;21098;-60
2021/07/22 06:06:35;;;;;;;13.60;4.55;;;;;;;17.02;78.60;96096.88;1765462;81;21549;-60
2021/07/22 06:09:01;;;;;;;12.43;3.80;;;;;;;17.20;79.29;96098.00;1764880;81;21054;-60
2021/07/22 06:11:29;;;;;;;7.92;4.12;;;;;;;17.37;79.44;96098.72;1765275;81;21017;-60
2021/07/22 06:13:56;;;;;;;11.12;3.92;;;;;;;17.56;79.29;96090.87;1764971;81;21050;-60
2021/07/22 06:16:23;;;;;;;6.33;3.83;;;;;;;17.73;78.73;96098.64;1765077;81;21476;-60
2021/07/22 06:18:50;;;;;;;7.22;4.12;;;;;;;17.90;78.49;96097.16;1765049;81;21102;-60
2021/07/22 06:21:17;;;;;;;5.70;3.75;;;;;;;18.08;78.12;96098.22;1764928;81;21049;-60
2021/07/22 06:23:45;;;;;;;6.58;3.72;;;;;;;18.19;76.15;96091.97;1765086;81;20999;-60
2021/07/22 06:26:12;;;;;;;7.87;4.00;;;;;;;18.37;76.83;96094.38;1765513;81;21025;-60
2021/07/22 06:28:38;;;;;;;9.98;4.35;;;;;;;18.54;76.58;96094.52;1764924;81;21496;-60
2021/07/22 06:31:05;;;;;;;9.53;4.33;;;;;;;18.70;76.53;96090.75;1765301;81;21015;-60
2021/07/22 06:33:32;;;;;;;9.23;4.50;;;;;;;18.88;75.94;96097.61;1764879;81;21022;-60
2021/07/22 06:35:58;;;;;;;6.85;4.10;;;;;;;18.98;74.74;96093.13;1764930;81;21030;-61
2021/07/22 06:38:29;;;;;;;5.20;4.15;;;;;;;19.03;72.52;96092.94;1765251;81;21050;-60
2021/07/22 06:40:53;;;;;;;9.38;4.53;;;;;;;19.13;71.27;96092.06;1764686;81;21089;-60
2021/07/22 06:43:19;;;;;;;7.72;5.12;;;;;;;19.22;71.82;96095.64;1733216;81;21088;-60
2021/07/22 06:45:46;;;;;;;6.33;4.53;;;;;;;19.26;69.54;96093.24;1733489;81;20999;-60
2021/07/22 06:48:12;;;;;;;6.75;4.78;;;;;;;19.31;69.87;96087.69;1764883;81;21105;-60
2021/07/22 06:50:39;;;;;;;10.80;4.55;;;;;;;19.36;69.54;96085.67;1765231;81;20978;-60
2021/07/22 06:53:06;;;;;;;8.98;4.72;;;;;;;19.42;69.45;96082.23;1764912;81;21523;-60
2021/07/22 06:55:34;;;;;;;8.98;4.92;;;;;;;19.49;67.54;96092.20;1765257;81;20993;-60
2021/07/22 06:58:05;;;;;;;10.75;4.47;;;;;;;19.57;67.85;96085.15;1764569;81;21066;-60
2021/07/22 07:00:33;;;;;;;7.08;5.05;;;;;;;19.66;68.55;96088.75;1765219;81;21030;-60
2021/07/22 07:03:04;;;;;;;9.03;4.60;;;;;;;19.71;66.84;96090.77;1765170;81;21042;-60
2021/07/22 07:05:35;;;;;;;7.03;4.60;;;;;;;19.77;67.07;96088.27;1765607;81;21429;-60
2021/07/22 07:08:03;;;;;;;9.40;4.95;;;;;;;19.82;67.12;96096.95;1764913;81;21030;-60
2021/07/22 07:10:30;;;;;;;10.00;4.95;;;;;;;19.93;67.77;96099.98;1765379;81;21477;-60
2021/07/22 07:12:57;;;;;;;7.08;5.10;;;;;;;20.00;66.66;96094.73;1765039;81;21528;-61
2021/07/22 07:15:25;;;;;;;8.83;4.35;;;;;;;20.05;67.16;96094.52;1765127;81;21496;-60
2021/07/22 07:17:51;;;;;;;8.80;4.58;;;;;;;20.17;67.16;96096.61;1765172;81;21038;-60
2021/07/22 07:20:18;;;;;;;8.78;4.70;;;;;;;20.23;64.93;96104.81;1765039;81;21457;-60
2021/07/22 07:22:44;;;;;;;6.37;5.05;;;;;;;20.29;63.68;96099.17;1765288;81;20970;-60
2021/07/22 07:25:12;;;;;;;8.75;4.75;;;;;;;20.30;63.61;96101.76;1764823;81;21018;-60
2021/07/22 07:27:40;;;;;;;7.40;4.90;;;;;;;20.38;64.34;96097.84;1765336;81;21491;-60
2021/07/22 07:30:08;;;;;;;5.85;5.00;;;;;;;20.52;65.22;96098.03;1765047;81;21050;-60
2021/07/22 07:32:36;;;;;;;9.55;4.87;;;;;;;20.64;63.98;96094.77;1765080;81;21030;-60
2021/07/22 07:35:04;;;;;;;10.98;5.35;;;;;;;20.74;64.34;96101.41;1764865;81;20995;-60
2021/07/22 07:37:30;;;;;;;6.92;4.97;;;;;;;20.92;64.74;96091.55;1765604;81;21018;-60
2021/07/22 07:39:58;;;;;;;8.03;5.25;;;;;;;21.07;64.34;96094.39;1764767;81;21511;-60
2021/07/22 07:42:25;;;;;;;7.33;4.85;;;;;;;21.20;62.02;96090.59;1763215;81;21484;-60
2021/07/22 07:44:52;;;;;;;6.40;4.75;;;;;;;21.34;62.30;96100.09;1757876;81;21054;-60
2021/07/22 07:47:20;;;;;;;7.40;4.97;;;;;;;21.34;61.16;96094.28;1758471;82;21055;-60
2021/07/22 07:49:47;;;;;;;6.70;4.50;;;;;;;21.47;61.47;96102.58;1758455;82;20999;-60
2021/07/22 07:52:14;;;;;;;7.53;4.83;;;;;;;21.51;62.25;96103.27;1758675;81;21035;-60
2021/07/22 07:54:41;;;;;;;9.40;5.22;;;;;;;21.60;62.22;96099.61;1758594;81;21516;-60
2021/07/22 07:57:07;;;;;;;11.40;5.17;;;;;;;21.60;62.50;96100.95;1758255;82;21030;-60
2021/07/22 07:59:34;;;;;;;7.08;4.50;;;;;;;21.64;60.80;96096.75;1758377;81;21046;-60
2021/07/22 08:02:00;;;;;;;8.35;4.47;;;;;;;21.75;61.41;96101.08;1758202;82;21042;-60
2021/07/22 08:04:27;;;;;;;5.37;4.42;;;;;;;21.77;59.51;96107.20;1758572;81;20999;-60
2021/07/22 08:06:53;;;;;;;8.90;4.53;;;;;;;21.76;58.03;96098.29;1758330;81;21325;-60
2021/07/22 08:09:19;;;;;;;7.15;4.78;;;;;;;21.80;56.97;96102.55;1758525;81;21006;-60
2021/07/22 08:11:46;;;;;;;7.35;4.45;;;;;;;21.86;56.33;96105.86;1758345;82;21062;-60
2021/07/22 08:14:13;;;;;;;5.22;4.05;;;;;;;21.97;56.93;96102.08;1758123;82;21488;-63
2021/07/22 08:16:43;;;;;;;5.58;4.55;;;;;;;22.05;56.99;96106.58;1758635;81;21058;-60
2021/07/22 08:19:10;;;;;;;6.97;4.28;;;;;;;22.02;53.83;96112.98;1758580;82;20983;-60
2021/07/22 08:21:37;;;;;;;6.30;4.53;;;;;;;21.96;53.10;96109.77;1758434;82;21078;-60
2021/07/22 08:24:04;;;;;;;8.03;4.33;;;;;;;21.95;53.97;96107.56;1758716;81;21018;-60
2021/07/22 08:26:31;;;;;;;8.55;4.35;;;;;;;22.01;53.60;96113.06;1758605;82;21046;-60
2021/07/22 08:28:57;;;;;;;5.65;3.87;;;;;;;22.02;52.78;96117.47;1758544;82;21007;-60
2021/07/22 08:31:24;;;;;;;6.47;4.35;;;;;;;22.12;54.50;96114.66;1758630;82;21026;-60
2021/07/22 08:33:52;;;;;;;5.62;4.45;;;;;;;22.31;54.91;96111.84;1758686;82;20999;-60
2021/07/22 08:36:18;;;;;;;5.83;4.08;;;;;;;22.56;54.34;96114.00;1758175;81;21070;-60
2021/07/22 08:38:45;;;;;;;4.40;4.00;;;;;;;22.57;53.20;96106.79;1758784;81;21022;-60
2021/07/22 08:41:15;;;;;;;8.13;4.33;;;;;;;22.52;52.92;96116.46;1758649;82;20990;-60
2021/07/22 08:43:42;;;;;;;5.87;4.05;;;;;;;22.48;52.85;96112.23;1762795;81;21061;-60
2021/07/22 08:46:08;;;;;;;8.78;4.75;;;;;;;22.43;51.37;96112.98;1765376;81;20998;-60
2021/07/22 08:48:36;;;;;;;8.80;4.80;;;;;;;22.53;53.34;96116.88;1765106;81;21038;-61
2021/07/22 08:51:04;;;;;;;7.08;4.22;;;;;;;22.63;52.30;96118.55;1765285;81;20979;-60
2021/07/22 08:53:31;;;;;;;7.67;4.70;;;;;;;22.79;52.08;96120.72;1733349;81;21042;-59
2021/07/22 08:55:59;;;;;;;6.10;4.50;;;;;;;22.82;52.53;96112.47;1765366;81;21532;-60
2021/07/22 08:58:28;;;;;;;7.92;4.67;;;;;;;22.95;52.23;96114.44;1765257;81;21030;-60
2021/07/22 09:00:56;;;;;;;10.20;5.03;;;;;;;23.03;51.94;96103.65;1765133;81;20990;-60
2021/07/22 09:03:22;;;;;;;6.33;4.55;;;;;;;23.10;50.76;96100.09;1765064;81;21026;-61
2021/07/22 09:05:49;;;;;;;7.75;4.85;;;;;;;23.13;50.87;96102.59;1765636;81;21038;-60
2021/07/22 09:08:15;;;;;;;7.67;5.10;;;;;;;23.24;49.81;96109.55;1764981;81;21099;-60
2021/07/22 09:10:42;;;;;;;5.10;4.60;;;;;;;23.20;49.39;96109.83;1765016;81;21126;-60
2021/07/22 09:13:25;;;;;;;5.95;4.60;;;;;;;23.26;50.54;96110.33;1765323;81;21014;-60
2021/07/22 09:15:52;;;;;;;5.55;4.55;;;;;;;23.46;49.36;96103.73;1765265;81;21030;-60
2021/07/22 09:18:23;;;;;;;9.03;5.30;;;;;;;23.54;48.93;96108.16;1765190;81;21050;-60
2021/07/22 09:20:52;;;;;;;8.40;4.80;;;;;;;23.69;48.56;96103.64;1765232;81;21015;-60
2021/07/22 09:23:22;;;;;;;8.85;4.62;;;;;;;23.78;48.98;96106.27;1765278;81;21007;-60
2021/07/22 09:25:51;;;;;;;11.10;5.03;;;;;;;23.93;49.32;96101.73;1765134;81;21003;-60
2021/07/22 09:28:24;;;;;;;6.97;4.60;;;;;;;24.05;47.73;96102.30;1765266;81;20986;-60
2021/07/22 09:30:57;;;;;;;7.37;4.78;;;;;;;23.97;46.26;96097.89;1765140;81;21130;-59
2021/07/22 09:33:39;;;;;;;10.65;4.95;;;;;;;24.11;47.09;96095.64;1765333;81;21002;-60
2021/07/22 09:36:23;;;;;;;6.35;4.65;;;;;;;24.12;49.22;96090.66;1765331;81;21070;-60
2021/07/22 09:38:50;;;;;;;5.37;4.20;;;;;;;24.05;47.58;96093.36;1764037;81;21465;-60
2021/07/22 09:41:24;;;;;;;8.35;4.97;;;;;;;24.00;46.52;96094.99;1765415;81;21003;-60
2021/07/22 09:43:51;;;;;;;7.12;4.65;;;;;;;24.05;46.85;96091.52;1760538;81;21524;-60
2021/07/22 09:46:17;;;;;;;6.33;5.00;;;;;;;24.09;45.83;96096.22;1758140;81;21010;-60
2021/07/22 09:49:10;;;;;;;5.83;4.65;;;;;;;24.18;45.62;96099.19;1758573;82;20998;-60
2021/07/22 09:51:38;;;;;;;6.45;5.05;;;;;;;24.21;42.99;96098.61;1758826;81;21508;-60
2021/07/22 09:54:09;;;;;;;5.53;4.42;;;;;;;24.22;44.62;96093.13;1758121;82;21571;-60
2021/07/22 09:56:41;;;;;;;8.63;4.97;;;;;;;24.35;46.39;96097.24;1758782;82;21496;-60
2021/07/22 09:59:09;;;;;;;7.03;5.10;;;;;;;24.44;44.27;96091.22;1758474;82;21022;-60
2021/07/22 10:01:48;;;;;;;9.15;4.45;;;;;;;24.42;44.25;96094.53;1758389;82;21062;-60
2021/07/22 10:04:19;;;;;;;5.35;4.30;;;;;;;24.37;44.48;96089.92;1758620;82;21054;-60
2021/07/22 10:06:47;;;;;;;7.95;4.87;;;;;;;24.44;44.04;96087.67;1758139;82;21011;-60
2021/07/22 10:09:20;;;;;;;5.22;4.33;;;;;;;24.55;45.68;96094.12;1758468;82;21026;-60
2021/07/22 10:11:47;;;;;;;5.22;4.42;;;;;;;24.73;42.33;96090.69;1731194;82;21588;-60
2021/07/22 10:14:18;;;;;;;7.70;4.87;;;;;;;24.82;43.96;96086.48;1758521;82;21006;-61
2021/07/22 10:16:48;;;;;;;7.42;4.83;;;;;;;24.98;42.95;96081.80;1758085;82;21564;-60
2021/07/22 10:19:17;;;;;;;6.60;4.70;;;;;;;25.11;43.05;96076.42;1758660;81;21007;-60
2021/07/22 10:21:45;;;;;;;7.05;4.83;;;;;;;25.25;43.65;96079.56;1729964;82;21497;-60
2021/07/22 10:24:11;;;;;;;5.78;4.25;;;;;;;25.31;42.14;96072.38;1758609;82;21030;-60
2021/07/22 10:26:43;;;;;;;8.10;5.03;;;;;;;25.36;41.39;96078.31;1758565;82;21501;-60
2021/07/22 10:29:10;;;;;;;5.67;4.50;;;;;;;25.41;42.15;96082.91;1731983;82;20998;-60
2021/07/22 10:31:46;;;;;;;4.92;4.20;;;;;;;25.37;40.13;96080.53;1758232;81;20995;-61
2021/07/22 10:34:16;;;;;;;5.83;4.70;;;;;;;25.49;43.67;96076.97;1758599;82;21042;-61
2021/07/22 10:36:45;;;;;;;6.80;5.35;;;;;;;25.61;45.13;96083.36;1758473;82;21515;-60
2021/07/22 10:39:13;;;;;;;6.17;4.30;;;;;;;25.66;41.17;96083.89;1758503;81;21038;-60
2021/07/22 10:41:41;;;;;;;5.67;4.37;;;;;;;25.77;40.51;96084.47;1758086;82;21022;-61
2021/07/22 10:44:22;;;;;;;5.37;4.22;;;;;;;25.83;40.58;96078.62;1762843;81;21022;-61
2021/07/22 10:47:06;;;;;;;6.20;4.42;;;;;;;25.80;42.83;96073.44;1763803;81;21576;-61
2021/07/22 10:49:42;;;;;;;12.58;4.80;;;;;;;25.96;41.63;96075.95;1764718;81;21014;-60
2021/07/22 10:52:12;;;;;;;7.03;4.42;;;;;;;26.09;40.44;96065.47;1765285;81;21022;-60
2021/07/22 10:54:57;;;;;;;9.93;4.72;;;;;;;26.18;43.33;96075.23;1765342;81;21035;-61
2021/07/22 10:57:39;;;;;;;6.62;4.67;;;;;;;26.28;41.67;96073.58;1764795;81;21053;-60
2021/07/22 11:00:08;;;;;;;4.97;4.30;;;;;;;26.48;43.38;96073.47;1765539;81;21054;-61
2021/07/22 11:02:46;;;;;;;5.22;4.40;;;;;;;26.59;38.30;96077.64;1765273;81;21576;-61
2021/07/22 11:05:28;;;;;;;4.65;4.22;;;;;;;26.64;37.23;96075.45;1765201;81;21464;-60
2021/07/22 11:08:19;;;;;;;9.15;4.78;;;;;;;26.30;38.55;96067.08;1757054;81;21016;-60
2021/07/22 11:10:56;;;;;;;6.47;4.75;;;;;;;26.00;39.69;96074.25;1765150;81;21037;-60
2021/07/22 11:13:41;;;;;;;5.00;4.42;;;;;;;25.87;39.51;96074.27;1764538;81;21468;-60
2021/07/22 11:16:31;;;;;;;6.05;4.50;;;;;;;25.76;39.77;96073.30;1765173;81;21046;-60
2021/07/22 11:19:04;;;;;;;6.80;4.58;;;;;;;25.55;39.57;96072.97;1765218;81;21010;-60
2021/07/22 11:21:34;;;;;;;7.58;4.47;;;;;;;25.47;40.33;96068.96;1759220;81;21011;-60
2021/07/22 11:24:09;;;;;;;5.10;4.47;;;;;;;25.52;42.45;96063.73;1765115;81;21105;-60
2021/07/22 11:26:40;;;;;;;4.60;4.10;;;;;;;25.69;41.89;96067.45;1765377;81;20993;-60
2021/07/22 11:29:09;;;;;;;6.33;4.10;;;;;;;25.58;38.60;96071.42;1765333;81;21010;-60
2021/07/22 11:31:45;;;;;;;7.72;4.58;;;;;;;25.47;37.86;96064.05;1764856;81;20986;-60
2021/07/22 11:34:13;;;;;;;4.20;3.80;;;;;;;25.31;38.88;96062.92;1765354;81;21527;-60
2021/07/22 11:36:40;;;;;;;6.55;4.35;;;;;;;25.08;39.44;96062.28;1765403;81;21009;-60
2021/07/22 11:39:07;;;;;;;5.08;4.00;;;;;;;24.90;41.33;96061.70;1765134;81;20982;-60
2021/07/22 11:41:34;;;;;;;4.53;4.12;;;;;;;24.81;41.84;96065.39;1765435;81;21457;-60
2021/07/22 11:44:04;;;;;;;6.30;4.20;;;;;;;24.75;44.30;96063.61;1765069;81;21077;-60